Time;durP1;ratioP1;P1;durP2;ratioP2;P2;SDS_P1;SDS_P2;PMS_P1;PMS_P2;Temp;Humidity;BMP_temperature;BMP_pressure;BME280_temperature;BME280_humidity;BME280_pressure;Samples;Min_cycle;Max_cycle;Signal;HPM_P1;HPM_P2
2022/07/27 00:00:29;;;;;;;0.90;0.10;;;21.80;55.70;;;;;;5111888;28;20122;-72
2022/07/27 00:02:55;;;;;;;0.15;0.00;;;21.80;55.70;;;;;;5111759;28;20145;-72
2022/07/27 00:05:22;;;;;;;1.20;0.10;;;21.80;55.70;;;;;;5111514;28;20498;-72
2022/07/27 00:07:48;;;;;;;1.40;0.32;;;21.80;55.60;;;;;;5111925;28;20039;-72
2022/07/27 00:10:14;;;;;;;2.38;0.08;;;21.80;55.70;;;;;;5111802;28;20032;-72
2022/07/27 00:12:40;;;;;;;1.40;0.03;;;21.80;55.70;;;;;;5112817;28;20386;-72
2022/07/27 00:15:06;;;;;;;1.02;0.10;;;21.80;55.70;;;;;;5111372;28;20459;-72
2022/07/27 00:17:32;;;;;;;0.50;0.10;;;21.80;55.70;;;;;;5111644;28;20043;-72
2022/07/27 00:19:58;;;;;;;0.80;0.10;;;21.80;55.70;;;;;;5111364;28;20453;-73
2022/07/27 00:22:23;;;;;;;0.70;0.00;;;21.70;55.70;;;;;;5111587;28;20045;-73
2022/07/27 00:24:50;;;;;;;0.40;0.10;;;21.80;55.70;;;;;;5111218;28;20046;-72
2022/07/27 00:27:16;;;;;;;0.30;0.00;;;21.70;55.70;;;;;;5112531;28;20062;-71
2022/07/27 00:29:42;;;;;;;0.88;0.10;;;21.70;55.70;;;;;;5111278;28;20036;-72
2022/07/27 00:32:07;;;;;;;0.32;0.10;;;21.70;55.80;;;;;;5111212;28;20039;-72
2022/07/27 00:34:33;;;;;;;0.17;0.05;;;21.70;56.50;;;;;;5111511;28;20043;-73
2022/07/27 00:36:59;;;;;;;0.75;0.03;;;21.70;55.80;;;;;;5111091;28;20472;-72
2022/07/27 00:39:24;;;;;;;0.30;0.00;;;21.70;55.80;;;;;;5111034;28;20039;-72
2022/07/27 00:41:50;;;;;;;0.50;0.10;;;21.70;55.80;;;;;;5111036;28;20043;-72
2022/07/27 00:44:31;;;;;;;0.70;0.10;;;21.70;55.80;;;;;;5110689;28;20079;-72
2022/07/27 00:46:58;;;;;;;1.08;0.10;;;21.70;55.80;;;;;;5111249;28;20043;-73
2022/07/27 00:49:25;;;;;;;0.40;0.10;;;21.70;55.80;;;;;;5111077;28;20036;-73
2022/07/27 00:51:52;;;;;;;0.38;0.00;;;21.70;55.80;;;;;;5111267;28;20055;-72
2022/07/27 00:54:19;;;;;;;0.50;0.20;;;21.60;55.80;;;;;;5111206;28;20075;-73
2022/07/27 00:56:45;;;;;;;0.10;0.00;;;21.60;55.80;;;;;;5111256;28;20040;-72
2022/07/27 00:59:12;;;;;;;0.80;0.30;;;21.60;55.80;;;;;;5112118;28;20498;-73
2022/07/27 01:01:38;;;;;;;0.28;0.20;;;21.60;55.80;;;;;;5111220;28;20044;-72
2022/07/27 01:04:04;;;;;;;0.45;0.10;;;21.60;55.80;;;;;;5110695;28;20479;-72
2022/07/27 01:06:31;;;;;;;1.13;0.20;;;21.60;55.90;;;;;;5110921;28;20077;-72
2022/07/27 01:11:44;;;;;;;0.50;0.05;;;21.60;55.90;;;;;;5110853;28;20044;-72
2022/07/27 01:14:12;;;;;;;0.45;0.10;;;21.60;55.90;;;;;;5111036;28;20039;-72
2022/07/27 01:16:38;;;;;;;0.22;0.00;;;21.60;56.00;;;;;;5110741;28;20083;-72
2022/07/27 01:19:04;;;;;;;0.77;0.10;;;21.60;56.00;;;;;;5112108;28;20077;-73
2022/07/27 01:21:34;;;;;;;0.10;0.00;;;21.60;56.00;;;;;;5110732;28;20498;-72
2022/07/27 01:24:00;;;;;;;0.20;0.08;;;21.60;56.00;;;;;;5110619;28;20040;-72
2022/07/27 01:26:25;;;;;;;0.30;0.00;;;21.50;55.90;;;;;;5110898;28;20036;-72
2022/07/27 01:28:57;;;;;;;0.32;0.05;;;21.50;56.00;;;;;;5111113;28;20084;-73
2022/07/27 01:31:23;;;;;;;0.68;0.30;;;21.50;56.00;;;;;;5112024;28;20402;-72
2022/07/27 01:33:49;;;;;;;0.30;0.00;;;21.50;55.90;;;;;;5110831;28;20039;-72
2022/07/27 01:36:15;;;;;;;0.98;0.10;;;21.50;56.00;;;;;;5110866;28;20394;-72
2022/07/27 01:38:41;;;;;;;0.20;0.00;;;21.50;55.90;;;;;;5110545;28;20139;-73
2022/07/27 01:41:07;;;;;;;0.95;0.10;;;21.50;56.00;;;;;;5110566;28;20161;-72
2022/07/27 01:43:32;;;;;;;0.35;0.10;;;21.50;56.00;;;;;;5110248;28;20046;-72
2022/07/27 01:45:58;;;;;;;0.85;0.05;;;21.50;55.90;;;;;;5110517;28;20056;-72
2022/07/27 01:48:25;;;;;;;0.52;0.10;;;21.50;56.00;;;;;;5110649;28;20031;-72
2022/07/27 01:50:51;;;;;;;0.55;0.22;;;21.50;56.00;;;;;;5110632;28;20035;-72
2022/07/27 01:53:18;;;;;;;0.65;0.00;;;21.50;56.00;;;;;;5114407;28;20435;-72
2022/07/27 01:55:43;;;;;;;0.60;0.00;;;21.50;56.00;;;;;;5113988;28;20475;-72
2022/07/27 01:58:09;;;;;;;0.93;0.10;;;21.50;56.00;;;;;;5115781;28;20039;-73
2022/07/27 02:00:35;;;;;;;0.35;0.10;;;21.50;56.00;;;;;;5114254;28;20054;-73
2022/07/27 02:03:02;;;;;;;0.52;0.10;;;21.50;56.00;;;;;;5114241;28;20046;-73
2022/07/27 02:05:28;;;;;;;0.30;0.10;;;21.40;56.00;;;;;;5113833;28;20079;-72
2022/07/27 02:07:54;;;;;;;0.10;0.00;;;21.50;56.10;;;;;;5113934;28;20071;-72
2022/07/27 02:10:19;;;;;;;0.38;0.08;;;21.40;56.00;;;;;;5113881;28;20038;-72
2022/07/27 02:12:45;;;;;;;0.60;0.10;;;21.50;56.10;;;;;;5115269;28;20031;-72
2022/07/27 02:15:13;;;;;;;0.20;0.00;;;21.40;56.00;;;;;;5115109;28;20517;-72
2022/07/27 02:17:39;;;;;;;0.55;0.20;;;21.40;56.00;;;;;;5113727;28;20050;-72
2022/07/27 02:20:08;;;;;;;0.75;0.10;;;21.50;56.00;;;;;;5113926;28;20122;-72
2022/07/27 02:22:34;;;;;;;0.75;0.10;;;21.40;56.00;;;;;;5113624;28;20047;-72
2022/07/27 02:24:59;;;;;;;0.30;0.00;;;21.40;56.00;;;;;;5113500;28;20036;-72
2022/07/27 02:27:25;;;;;;;0.55;0.00;;;21.40;56.00;;;;;;5113474;28;20384;-71
2022/07/27 02:29:52;;;;;;;1.20;0.00;;;21.40;56.10;;;;;;5113433;28;20054;-72
2022/07/27 02:32:18;;;;;;;0.30;0.10;;;21.40;56.00;;;;;;5113658;28;20074;-72
2022/07/27 02:34:44;;;;;;;0.77;0.10;;;21.40;56.10;;;;;;5113336;28;20040;-71
2022/07/27 02:37:09;;;;;;;0.38;0.10;;;21.40;56.10;;;;;;5113278;28;20099;-72
2022/07/27 02:39:35;;;;;;;0.20;0.00;;;21.40;56.10;;;;;;5113491;28;20054;-73
2022/07/27 02:42:02;;;;;;;0.43;0.00;;;21.40;56.10;;;;;;5113111;28;20048;-72
2022/07/27 02:44:28;;;;;;;0.15;0.00;;;21.40;56.00;;;;;;5113037;28;20053;-72
2022/07/27 02:46:53;;;;;;;0.30;0.20;;;21.40;56.00;;;;;;5113339;28;20043;-71
2022/07/27 02:49:19;;;;;;;0.82;0.25;;;21.40;56.10;;;;;;5113106;28;20456;-71
2022/07/27 02:51:50;;;;;;;0.38;0.00;;;21.40;56.10;;;;;;5112979;28;20040;-73
2022/07/27 02:54:17;;;;;;;0.22;0.10;;;21.40;56.00;;;;;;5113025;28;20078;-71
2022/07/27 02:56:42;;;;;;;0.30;0.10;;;21.40;56.00;;;;;;5113079;28;20043;-72
2022/07/27 02:59:08;;;;;;;0.30;0.03;;;21.40;56.10;;;;;;5112909;28;20047;-72
2022/07/27 03:01:34;;;;;;;0.52;0.10;;;21.40;56.10;;;;;;5112829;28;20046;-73
2022/07/27 03:03:59;;;;;;;0.93;0.17;;;21.40;56.10;;;;;;5114121;28;20089;-72
2022/07/27 03:06:25;;;;;;;0.13;0.00;;;21.40;56.10;;;;;;5114093;28;20035;-71
2022/07/27 03:08:50;;;;;;;0.63;0.10;;;21.40;56.10;;;;;;5112764;28;20036;-72
2022/07/27 03:11:16;;;;;;;0.90;0.10;;;21.40;56.10;;;;;;5113873;28;20100;-72
2022/07/27 03:13:42;;;;;;;0.10;0.00;;;21.30;56.10;;;;;;5112708;28;20430;-71
2022/07/27 03:16:07;;;;;;;0.60;0.10;;;21.30;56.00;;;;;;5112813;28;20039;-73
2022/07/27 03:18:33;;;;;;;0.13;0.00;;;21.30;56.10;;;;;;5113790;28;20074;-72
2022/07/27 03:20:58;;;;;;;0.20;0.10;;;21.30;56.10;;;;;;5112447;28;20043;-71
2022/07/27 03:23:24;;;;;;;0.65;0.10;;;21.30;56.10;;;;;;5113677;28;20039;-72
2022/07/27 03:25:50;;;;;;;1.30;0.10;;;21.30;56.10;;;;;;5113672;28;20430;-72
2022/07/27 03:28:18;;;;;;;0.95;0.10;;;21.30;56.10;;;;;;5112158;28;20044;-72
2022/07/27 03:30:44;;;;;;;0.10;0.00;;;21.30;56.10;;;;;;5113662;28;20420;-72
2022/07/27 03:33:09;;;;;;;0.50;0.00;;;21.30;56.10;;;;;;5112279;28;20044;-73
2022/07/27 03:35:35;;;;;;;0.10;0.00;;;21.30;56.10;;;;;;5112297;28;20050;-72
2022/07/27 03:38:00;;;;;;;0.43;0.35;;;21.30;56.10;;;;;;5112349;28;20040;-72
2022/07/27 03:40:28;;;;;;;0.32;0.10;;;21.30;56.10;;;;;;5113339;28;20399;-72
2022/07/27 03:42:53;;;;;;;0.68;0.10;;;21.30;56.00;;;;;;5095191;28;20040;-72
2022/07/27 03:45:19;;;;;;;1.05;0.20;;;21.30;56.10;;;;;;5112874;28;20048;-72
2022/07/27 03:47:45;;;;;;;0.17;0.10;;;21.30;56.10;;;;;;5111926;28;20123;-72
2022/07/27 03:50:11;;;;;;;0.35;0.10;;;21.30;56.10;;;;;;5112146;28;20118;-72
2022/07/27 03:52:36;;;;;;;0.98;0.10;;;21.30;56.10;;;;;;5111831;28;20046;-71
2022/07/27 03:55:02;;;;;;;0.20;0.00;;;21.20;56.10;;;;;;5111813;28;20047;-72
2022/07/27 03:57:28;;;;;;;0.57;0.10;;;21.20;56.10;;;;;;5112054;28;20071;-72
2022/07/27 03:59:54;;;;;;;0.10;0.00;;;21.20;56.00;;;;;;5111996;28;20082;-71
2022/07/27 04:02:19;;;;;;;0.25;0.10;;;21.20;56.10;;;;;;5113015;28;20478;-72
2022/07/27 04:04:45;;;;;;;0.13;0.00;;;21.20;56.10;;;;;;5111637;28;20092;-71
2022/07/27 04:07:11;;;;;;;0.40;0.10;;;21.20;56.10;;;;;;5111601;28;20403;-71
2022/07/27 04:09:36;;;;;;;0.47;0.10;;;21.20;56.10;;;;;;5111805;28;20071;-72
2022/07/27 04:12:03;;;;;;;0.20;0.10;;;21.20;56.10;;;;;;5111506;28;20036;-72
2022/07/27 04:14:29;;;;;;;0.17;0.00;;;21.20;56.10;;;;;;5111213;28;20078;-72
2022/07/27 04:16:54;;;;;;;0.38;0.10;;;21.20;56.10;;;;;;5111740;28;20398;-73
2022/07/27 04:19:21;;;;;;;0.20;0.03;;;21.20;56.10;;;;;;5111418;28;20043;-72
2022/07/27 04:21:46;;;;;;;0.17;0.00;;;21.20;56.10;;;;;;5111316;28;20048;-72
2022/07/27 04:24:12;;;;;;;0.25;0.00;;;21.20;56.10;;;;;;5111456;28;20054;-72
2022/07/27 04:26:38;;;;;;;0.50;0.08;;;21.20;56.10;;;;;;5112631;28;20399;-72
2022/07/27 04:29:04;;;;;;;0.10;0.00;;;21.20;56.10;;;;;;5111400;28;20047;-71
2022/07/27 04:31:30;;;;;;;0.10;0.00;;;21.20;56.10;;;;;;5112567;28;20050;-72
2022/07/27 04:33:56;;;;;;;0.57;0.10;;;21.10;56.10;;;;;;5111278;28;20118;-72
2022/07/27 04:36:21;;;;;;;0.43;0.00;;;21.10;56.10;;;;;;5111167;28;20130;-72
2022/07/27 04:38:47;;;;;;;0.25;0.10;;;21.10;56.10;;;;;;5112555;28;20050;-72
2022/07/27 04:41:12;;;;;;;0.32;0.03;;;21.10;56.10;;;;;;5111098;28;20039;-72
2022/07/27 04:43:38;;;;;;;0.45;0.10;;;21.10;56.90;;;;;;5110699;28;20038;-71
2022/07/27 04:46:07;;;;;;;0.47;0.10;;;21.10;56.10;;;;;;5111288;28;20156;-72
2022/07/27 04:48:34;;;;;;;0.20;0.10;;;21.10;56.10;;;;;;5111044;28;20059;-71
2022/07/27 04:51:00;;;;;;;0.93;0.08;;;21.10;56.10;;;;;;5112249;28;20039;-71
2022/07/27 04:53:26;;;;;;;0.70;0.00;;;21.10;56.10;;;;;;5111035;28;20035;-72
2022/07/27 04:55:51;;;;;;;0.30;0.00;;;21.10;56.10;;;;;;5110974;28;20234;-72
2022/07/27 04:58:17;;;;;;;0.20;0.00;;;21.00;56.10;;;;;;5110951;28;20044;-72
2022/07/27 05:00:43;;;;;;;0.10;0.00;;;21.10;56.10;;;;;;5112163;28;20048;-73
2022/07/27 05:03:09;;;;;;;0.47;0.00;;;21.00;56.10;;;;;;5111222;28;20368;-72
2022/07/27 05:05:35;;;;;;;0.30;0.10;;;21.10;56.20;;;;;;5110917;28;20042;-72
2022/07/27 05:08:02;;;;;;;0.20;0.00;;;21.00;56.10;;;;;;5111131;28;20440;-71
2022/07/27 05:10:27;;;;;;;0.20;0.10;;;21.00;56.10;;;;;;5110830;28;20115;-71
2022/07/27 05:12:53;;;;;;;0.28;0.00;;;21.00;56.10;;;;;;5112172;28;20130;-72
2022/07/27 05:15:19;;;;;;;0.32;0.00;;;21.00;56.10;;;;;;5110825;28;20040;-72
2022/07/27 05:17:46;;;;;;;0.32;0.00;;;21.00;56.10;;;;;;5094001;28;20058;-72
2022/07/27 05:20:12;;;;;;;0.47;0.10;;;21.00;56.10;;;;;;5111029;28;20096;-76
2022/07/27 05:22:38;;;;;;;0.65;0.00;;;21.10;56.10;;;;;;5112012;28;20368;-72
2022/07/27 05:25:04;;;;;;;0.32;0.10;;;21.00;56.10;;;;;;5110671;28;20043;-71
2022/07/27 05:27:30;;;;;;;0.17;0.10;;;21.00;56.00;;;;;;5113574;28;20044;-71
2022/07/27 05:29:56;;;;;;;0.45;0.00;;;21.10;56.10;;;;;;5114918;28;20394;-72
2022/07/27 05:32:22;;;;;;;0.40;0.10;;;21.00;56.00;;;;;;5114746;28;20028;-71
2022/07/27 05:34:48;;;;;;;0.43;0.00;;;21.00;56.00;;;;;;5114741;28;20043;-72
2022/07/27 05:37:13;;;;;;;0.30;0.05;;;21.00;56.00;;;;;;5114435;28;20053;-72
2022/07/27 05:39:41;;;;;;;0.38;0.10;;;21.00;56.00;;;;;;5115865;28;20114;-72
2022/07/27 05:42:07;;;;;;;0.52;0.10;;;21.00;56.00;;;;;;5115604;28;20036;-72
2022/07/27 05:44:33;;;;;;;0.88;0.00;;;21.00;55.90;;;;;;5113998;28;20047;-71
2022/07/27 05:46:59;;;;;;;0.28;0.00;;;21.00;55.90;;;;;;5114213;28;20082;-72
2022/07/27 05:49:24;;;;;;;0.30;0.00;;;21.00;55.90;;;;;;5114230;28;20036;-71
2022/07/27 05:51:50;;;;;;;0.30;0.10;;;21.00;55.90;;;;;;5114417;28;20040;-72
2022/07/27 05:54:17;;;;;;;0.30;0.10;;;21.00;55.80;;;;;;5114128;28;20406;-76
2022/07/27 05:56:43;;;;;;;0.30;0.00;;;21.00;55.80;;;;;;5114149;28;20048;-72
2022/07/27 05:59:09;;;;;;;0.57;0.30;;;21.00;55.80;;;;;;5113963;28;20092;-72
2022/07/27 06:01:36;;;;;;;0.65;0.10;;;21.00;55.80;;;;;;5114206;28;20075;-72
2022/07/27 06:04:02;;;;;;;0.20;0.05;;;21.00;55.70;;;;;;5113843;28;20072;-71
2022/07/27 06:09:14;;;;;;;0.45;0.00;;;21.00;55.80;;;;;;5113891;28;20043;-72
2022/07/27 06:11:39;;;;;;;0.20;0.10;;;21.10;55.70;;;;;;5114148;28;20544;-72
2022/07/27 06:14:05;;;;;;;0.13;0.00;;;21.10;55.70;;;;;;5113867;28;20078;-71
2022/07/27 06:16:30;;;;;;;0.32;0.00;;;21.10;55.70;;;;;;5113648;28;20509;-72
2022/07/27 06:18:56;;;;;;;0.47;0.00;;;21.10;55.70;;;;;;5115109;28;20040;-72
2022/07/27 06:21:25;;;;;;;0.30;0.10;;;21.10;55.70;;;;;;5113546;28;20122;-71
2022/07/27 06:23:51;;;;;;;0.20;0.00;;;21.10;55.70;;;;;;5113706;28;20051;-71
2022/07/27 06:26:17;;;;;;;0.30;0.00;;;21.10;55.60;;;;;;5113770;28;20164;-72
2022/07/27 06:28:43;;;;;;;0.22;0.10;;;21.10;55.60;;;;;;5113367;28;20538;-71
2022/07/27 06:31:08;;;;;;;0.40;0.10;;;21.10;55.60;;;;;;5114938;28;20028;-72
2022/07/27 06:33:34;;;;;;;0.40;0.10;;;21.10;55.60;;;;;;5113446;28;20035;-72
2022/07/27 06:36:00;;;;;;;0.20;0.10;;;21.10;55.50;;;;;;5113445;28;20036;-72
2022/07/27 06:38:27;;;;;;;0.10;0.00;;;21.10;55.50;;;;;;5096047;28;20054;-72
2022/07/27 06:40:53;;;;;;;0.40;0.10;;;21.10;55.50;;;;;;5113256;28;20044;-72
2022/07/27 06:43:21;;;;;;;0.30;0.00;;;21.10;55.50;;;;;;5113568;28;20126;-71
2022/07/27 06:45:47;;;;;;;0.30;0.10;;;21.10;55.40;;;;;;5112898;28;20518;-71
2022/07/27 06:48:13;;;;;;;1.08;0.10;;;21.10;55.40;;;;;;5113141;28;20048;-71
2022/07/27 06:50:39;;;;;;;0.93;0.10;;;21.10;55.40;;;;;;5113326;28;20119;-71
2022/07/27 06:53:05;;;;;;;0.82;0.05;;;21.10;55.30;;;;;;5113067;28;20118;-71
2022/07/27 06:55:30;;;;;;;0.88;0.10;;;21.10;55.30;;;;;;5113295;28;20069;-71
2022/07/27 06:57:56;;;;;;;0.32;0.00;;;21.20;55.40;;;;;;5113338;28;20483;-72
2022/07/27 07:00:22;;;;;;;0.47;0.10;;;21.10;55.30;;;;;;5114146;28;20105;-72
2022/07/27 07:03:04;;;;;;;0.40;0.15;;;21.20;55.40;;;;;;5113414;28;20035;-72
2022/07/27 07:05:31;;;;;;;0.20;0.00;;;21.20;55.30;;;;;;5112792;28;20039;-71
2022/07/27 07:07:58;;;;;;;0.52;0.00;;;21.10;55.20;;;;;;5112810;28;20046;-71
2022/07/27 07:10:24;;;;;;;0.20;0.10;;;21.20;55.30;;;;;;5112957;28;20032;-71
2022/07/27 07:12:54;;;;;;;0.30;0.10;;;21.10;55.20;;;;;;5112935;28;20139;-71
2022/07/27 07:15:23;;;;;;;0.50;0.10;;;21.20;55.20;;;;;;5112878;28;20129;-72
2022/07/27 07:17:48;;;;;;;0.50;0.38;;;21.20;55.20;;;;;;5114056;28;20074;-78
2022/07/27 07:20:15;;;;;;;0.25;0.03;;;21.20;55.20;;;;;;5112448;28;20448;-72
2022/07/27 07:22:41;;;;;;;0.40;0.10;;;21.20;55.20;;;;;;5112854;28;20387;-71
2022/07/27 07:25:07;;;;;;;0.47;0.20;;;21.20;55.20;;;;;;5113561;28;20035;-72
2022/07/27 07:27:33;;;;;;;0.50;0.10;;;21.20;55.20;;;;;;5112574;28;20140;-71
2022/07/27 07:29:58;;;;;;;0.25;0.10;;;21.20;55.20;;;;;;5113574;28;20383;-71
2022/07/27 07:32:24;;;;;;;0.10;0.00;;;21.20;55.20;;;;;;5112272;28;20391;-72
2022/07/27 07:34:51;;;;;;;0.75;0.10;;;21.20;55.10;;;;;;5112575;28;20100;-71
2022/07/27 07:37:18;;;;;;;0.40;0.10;;;21.20;55.10;;;;;;5112340;28;20044;-72
2022/07/27 07:39:44;;;;;;;0.60;0.10;;;21.20;55.00;;;;;;5112162;28;20039;-72
2022/07/27 07:42:10;;;;;;;0.38;0.00;;;21.30;55.10;;;;;;5113266;28;20039;-72
2022/07/27 07:44:36;;;;;;;0.60;0.10;;;21.30;55.00;;;;;;5111775;28;20055;-72
2022/07/27 07:47:02;;;;;;;0.52;0.10;;;21.30;55.00;;;;;;5111866;28;20044;-71
2022/07/27 07:49:27;;;;;;;0.50;0.00;;;21.30;55.00;;;;;;5111242;28;20044;-71
2022/07/27 07:51:53;;;;;;;0.15;0.00;;;21.30;54.90;;;;;;5111775;28;20031;-71
2022/07/27 07:54:19;;;;;;;0.65;0.10;;;21.30;54.90;;;;;;5111875;28;20051;-71
2022/07/27 07:56:44;;;;;;;1.10;0.05;;;21.30;54.90;;;;;;5111745;28;20118;-72
2022/07/27 07:59:10;;;;;;;0.68;0.10;;;21.30;54.80;;;;;;5113015;28;20070;-72
2022/07/27 08:01:35;;;;;;;2.42;0.10;;;21.30;54.80;;;;;;5112889;28;20043;-71
2022/07/27 08:04:01;;;;;;;0.95;0.10;;;21.30;54.80;;;;;;5111577;28;21934;-71
2022/07/27 08:06:27;;;;;;;0.50;0.00;;;21.40;54.80;;;;;;5111538;28;20040;-71
2022/07/27 08:08:53;;;;;;;0.82;0.10;;;21.40;54.80;;;;;;5111665;28;20126;-72
2022/07/27 08:11:19;;;;;;;0.35;0.03;;;21.40;54.70;;;;;;5111534;28;20035;-71
2022/07/27 08:13:44;;;;;;;0.73;0.10;;;21.40;54.70;;;;;;5111749;28;20138;-72
2022/07/27 08:16:10;;;;;;;0.10;0.00;;;21.40;54.70;;;;;;5112933;28;20036;-71
2022/07/27 08:18:36;;;;;;;0.20;0.00;;;21.40;54.60;;;;;;5112941;28;20394;-72
2022/07/27 08:21:01;;;;;;;0.32;0.00;;;21.40;54.60;;;;;;5111389;28;20136;-72
2022/07/27 08:23:27;;;;;;;0.20;0.05;;;21.50;54.60;;;;;;5111612;28;20043;-72
2022/07/27 08:25:53;;;;;;;0.43;0.10;;;21.40;54.50;;;;;;5111307;28;20063;-72
2022/07/27 08:28:19;;;;;;;0.47;0.00;;;21.50;54.50;;;;;;5111204;28;20060;-72
2022/07/27 08:30:45;;;;;;;0.00;0.00;;;21.50;54.40;;;;;;5111369;28;20047;-71
2022/07/27 08:33:11;;;;;;;0.10;0.00;;;21.50;54.40;;;;;;5111128;28;20046;-71
2022/07/27 08:35:36;;;;;;;0.20;0.00;;;21.50;54.40;;;;;;5111502;28;20126;-72
2022/07/27 08:38:04;;;;;;;1.75;0.10;;;21.50;54.30;;;;;;5094436;28;20402;-72
2022/07/27 08:40:31;;;;;;;0.55;0.10;;;21.50;54.30;;;;;;5112487;28;20035;-72
2022/07/27 08:42:59;;;;;;;0.17;0.10;;;21.50;54.30;;;;;;5111366;28;20403;-72
2022/07/27 08:45:25;;;;;;;0.08;0.00;;;21.50;54.30;;;;;;5110796;28;20509;-71
2022/07/27 08:47:51;;;;;;;0.55;0.10;;;21.50;54.30;;;;;;5111239;28;20130;-72
2022/07/27 08:50:22;;;;;;;0.63;0.05;;;21.50;54.30;;;;;;5112344;28;20100;-71
2022/07/27 08:55:33;;;;;;;0.45;0.00;;;21.50;54.30;;;;;;5109800;27;20384;-72
2022/07/27 08:57:59;;;;;;;0.50;0.00;;;21.50;54.20;;;;;;5109734;28;20376;-72
2022/07/27 09:00:26;;;;;;;0.20;0.05;;;21.50;54.20;;;;;;5109742;28;20028;-71
2022/07/27 09:02:52;;;;;;;0.47;0.10;;;21.50;54.10;;;;;;5108673;28;20052;-72
2022/07/27 09:05:18;;;;;;;0.45;0.00;;;21.50;54.10;;;;;;5108319;28;20127;-72
2022/07/27 09:07:43;;;;;;;0.20;0.03;;;21.60;54.10;;;;;;5142791;27;20126;-72
2022/07/27 09:10:10;;;;;;;0.60;0.00;;;21.60;54.00;;;;;;5108272;28;20035;-71
2022/07/27 09:12:36;;;;;;;0.30;0.08;;;21.60;53.80;;;;;;5108418;28;20042;-72
2022/07/27 09:15:06;;;;;;;0.38;0.10;;;21.70;53.80;;;;;;5108095;28;20051;-72
2022/07/27 09:17:33;;;;;;;0.38;0.10;;;21.70;53.50;;;;;;5108358;28;20046;-72
2022/07/27 09:20:03;;;;;;;0.70;0.10;;;21.80;53.50;;;;;;5107983;28;20063;-72
2022/07/27 09:22:51;;;;;;;0.73;0.10;;;21.80;53.40;;;;;;5108328;28;20040;-72
2022/07/27 09:25:20;;;;;;;0.60;0.10;;;21.90;53.20;;;;;;5107753;28;20036;-71
2022/07/27 09:27:48;;;;;;;0.20;0.20;;;21.90;53.10;;;;;;5108567;28;20381;-72
2022/07/27 09:30:17;;;;;;;0.45;0.10;;;22.00;53.10;;;;;;5108094;28;20031;-72
2022/07/27 09:32:54;;;;;;;0.85;0.00;;;22.00;52.90;;;;;;5108144;28;20119;-72
2022/07/27 09:38:20;;;;;;;0.77;0.10;;;22.00;52.60;;;;;;5130341;27;20918;-72
2022/07/27 09:40:49;;;;;;;0.68;0.10;;;22.10;52.50;;;;;;5129041;27;20047;-72
2022/07/27 09:43:15;;;;;;;0.10;0.00;;;22.10;52.50;;;;;;5129238;28;20326;-72
2022/07/27 09:45:42;;;;;;;0.20;0.00;;;22.10;52.50;;;;;;5129223;28;20667;-71
2022/07/27 09:51:00;;;;;;;0.35;0.05;;;22.10;52.50;;;;;;5130268;27;20403;-71
2022/07/27 09:53:31;;;;;;;0.15;0.00;;;22.10;52.50;;;;;;5129333;28;20428;-71
2022/07/27 09:56:04;;;;;;;0.25;0.00;;;22.10;52.40;;;;;;5129182;28;20284;-72
2022/07/27 09:58:40;;;;;;;0.82;0.10;;;22.10;52.40;;;;;;5129161;28;20244;-72
2022/07/27 10:01:11;;;;;;;0.10;0.00;;;22.10;52.40;;;;;;5129111;28;20391;-72
2022/07/27 10:03:37;;;;;;;0.68;0.10;;;22.10;53.30;;;;;;5129112;28;20039;-72
2022/07/27 10:06:03;;;;;;;1.40;0.10;;;22.10;52.50;;;;;;5128717;28;20562;-71
2022/07/27 10:08:30;;;;;;;0.30;0.10;;;22.10;52.50;;;;;;5128774;28;20121;-71
2022/07/27 10:10:56;;;;;;;0.30;0.03;;;22.10;52.50;;;;;;5128908;28;20092;-71
2022/07/27 10:13:24;;;;;;;0.50;0.10;;;22.10;52.50;;;;;;5128585;28;20039;-71
2022/07/27 10:15:51;;;;;;;0.63;0.10;;;22.10;52.50;;;;;;5128565;27;20042;-72
2022/07/27 10:18:28;;;;;;;0.90;0.10;;;22.10;52.50;;;;;;5128800;28;20376;-71
2022/07/27 10:20:57;;;;;;;0.30;0.10;;;22.00;52.50;;;;;;5128351;28;20043;-72
2022/07/27 10:23:33;;;;;;;0.73;0.10;;;22.00;52.50;;;;;;5128422;28;20075;-71
2022/07/27 10:26:13;;;;;;;0.38;0.10;;;22.00;52.50;;;;;;5128280;28;20054;-71
2022/07/27 10:31:37;;;;;;;0.10;0.00;;;22.00;52.50;;;;;;5130283;27;20353;-71
2022/07/27 10:34:05;;;;;;;0.20;0.10;;;22.00;52.60;;;;;;5129269;28;20089;-72
2022/07/27 10:39:10;;;;;;;0.70;0.10;;;22.00;52.60;;;;;;5089478;28;20397;-72
2022/07/27 10:41:39;;;;;;;0.30;0.00;;;22.00;52.60;;;;;;5088043;28;20056;-71
2022/07/27 10:47:02;;;;;;;0.13;0.00;;;22.00;52.60;;;;;;5089386;27;20914;-71
2022/07/27 10:49:31;;;;;;;0.57;0.10;;;22.00;52.60;;;;;;5088212;28;20050;-72
2022/07/27 10:51:58;;;;;;;0.30;0.10;;;22.00;52.60;;;;;;5088316;28;20123;-71
2022/07/27 10:54:26;;;;;;;0.50;0.10;;;22.00;52.60;;;;;;5088040;28;20044;-71
2022/07/27 10:56:54;;;;;;;0.40;0.10;;;22.00;52.60;;;;;;5088247;28;20434;-71
2022/07/27 11:02:37;;;;;;;0.40;0.10;;;22.00;52.50;;;;;;5152479;27;1173227;-71
2022/07/27 11:05:04;;;;;;;0.40;0.10;;;22.00;52.50;;;;;;5153090;27;20279;-71
2022/07/27 11:07:29;;;;;;;0.15;0.00;;;22.00;52.60;;;;;;5153248;27;20478;-71
2022/07/27 11:09:58;;;;;;;0.43;0.10;;;21.90;52.50;;;;;;5135767;27;20046;-71
2022/07/27 11:12:27;;;;;;;0.57;0.22;;;22.00;52.60;;;;;;5153359;27;20042;-72
2022/07/27 11:14:56;;;;;;;1.10;0.10;;;22.00;52.60;;;;;;5152812;27;20513;-71
2022/07/27 11:17:25;;;;;;;0.57;0.10;;;22.00;52.60;;;;;;5171583;27;20039;-71
2022/07/27 11:20:00;;;;;;;0.40;0.10;;;21.90;52.60;;;;;;5152923;27;20112;-71
2022/07/27 11:22:32;;;;;;;0.80;0.20;;;21.90;52.50;;;;;;5152756;27;20034;-72
2022/07/27 11:24:58;;;;;;;1.58;0.30;;;22.00;52.60;;;;;;5153140;27;20035;-71
2022/07/27 11:27:24;;;;;;;0.80;0.10;;;21.90;52.60;;;;;;5152625;27;20042;-71
2022/07/27 11:29:51;;;;;;;0.70;0.10;;;22.00;52.60;;;;;;5152835;27;20117;-71
2022/07/27 11:32:20;;;;;;;1.33;0.10;;;22.00;52.60;;;;;;5171383;27;20090;-71
2022/07/27 11:34:47;;;;;;;0.30;0.00;;;21.90;52.60;;;;;;5171114;27;20066;-71
2022/07/27 11:37:18;;;;;;;0.47;0.10;;;22.00;52.70;;;;;;5171195;27;20030;-71
2022/07/27 11:39:46;;;;;;;0.57;0.05;;;21.90;52.60;;;;;;5170994;27;20126;-72
2022/07/27 11:42:13;;;;;;;1.17;0.15;;;22.00;52.60;;;;;;5152286;27;20054;-72
2022/07/27 11:44:41;;;;;;;0.28;0.10;;;22.00;52.60;;;;;;5152609;27;20042;-72
2022/07/27 11:47:07;;;;;;;2.15;0.10;;;21.90;52.60;;;;;;5152447;27;20386;-71
2022/07/27 11:49:34;;;;;;;0.55;0.10;;;21.90;52.60;;;;;;5152251;27;20045;-72
2022/07/27 11:52:03;;;;;;;0.20;0.10;;;22.00;52.70;;;;;;5152449;27;20148;-71
2022/07/27 11:54:30;;;;;;;0.68;0.10;;;22.00;52.70;;;;;;5152159;27;20046;-71
2022/07/27 11:59:39;;;;;;;0.40;0.00;;;22.00;52.70;;;;;;5130250;27;20379;-71
2022/07/27 12:02:12;;;;;;;0.30;0.05;;;22.00;52.70;;;;;;5128908;28;20552;-71
2022/07/27 12:04:40;;;;;;;0.20;0.10;;;22.00;52.70;;;;;;5128853;28;20047;-71
2022/07/27 12:07:09;;;;;;;0.17;0.00;;;22.00;52.70;;;;;;5129149;28;20454;-71
2022/07/27 12:12:24;;;;;;;0.40;0.08;;;22.00;52.60;;;;;;5151045;27;20107;-72
2022/07/27 12:14:55;;;;;;;0.55;0.05;;;22.00;52.60;;;;;;5128963;28;20097;-71
2022/07/27 12:20:07;;;;;;;0.45;0.10;;;22.00;52.60;;;;;;5130231;27;20357;-71
2022/07/27 12:30:43;;;;;;;0.30;0.10;;;22.00;52.60;;;;;;5130311;27;20395;-72
2022/07/27 12:33:33;;;;;;;0.17;0.05;;;22.00;52.60;;;;;;5146253;27;20039;-71
2022/07/27 12:36:00;;;;;;;0.65;0.03;;;22.00;52.60;;;;;;5129133;28;20035;-72
2022/07/27 12:38:40;;;;;;;0.40;0.00;;;22.00;52.60;;;;;;5129100;28;20043;-71
2022/07/27 12:41:06;;;;;;;;;;;22.00;52.60;;;;;;5146593;27;20046;-71
2022/07/27 12:43:32;;;;;;;3.00;1.27;;;22.00;52.60;;;;;;5128841;28;20382;-71
2022/07/27 12:46:08;;;;;;;0.28;0.10;;;22.00;52.60;;;;;;5128667;28;20031;-72
2022/07/27 12:48:37;;;;;;;0.50;0.10;;;22.00;52.60;;;;;;5128718;28;20039;-72
2022/07/27 12:51:05;;;;;;;0.35;0.10;;;22.00;52.60;;;;;;5128924;27;20092;-71
2022/07/27 12:53:32;;;;;;;0.50;0.10;;;22.00;52.60;;;;;;5128633;28;20043;-72
2022/07/27 12:56:00;;;;;;;0.22;0.13;;;22.00;52.60;;;;;;5129844;27;20062;-72
2022/07/27 12:58:26;;;;;;;0.47;0.10;;;22.00;52.60;;;;;;5129643;27;20402;-71
2022/07/27 13:00:52;;;;;;;0.90;0.10;;;22.00;52.60;;;;;;5127987;28;20042;-72
2022/07/27 13:03:17;;;;;;;1.20;0.10;;;22.00;52.60;;;;;;5125638;28;20039;-71
2022/07/27 13:05:43;;;;;;;6.18;0.30;;;22.00;52.70;;;;;;5127173;28;20047;-69
2022/07/27 13:08:09;;;;;;;3.20;0.20;;;22.10;53.00;;;;;;5127878;28;20035;-71
2022/07/27 13:10:36;;;;;;;1.35;0.20;;;22.10;53.30;;;;;;5128382;28;20289;-71
2022/07/27 13:13:03;;;;;;;5.28;0.20;;;22.20;53.50;;;;;;5129272;28;20117;-72
2022/07/27 13:15:28;;;;;;;3.33;0.35;;;22.30;53.40;;;;;;5128362;27;20360;-71
2022/07/27 13:17:54;;;;;;;2.03;0.10;;;22.30;53.40;;;;;;5128019;28;20047;-70
2022/07/27 13:20:21;;;;;;;1.45;0.20;;;22.40;53.30;;;;;;5127937;28;20049;-71
2022/07/27 13:22:47;;;;;;;0.50;0.20;;;22.40;53.30;;;;;;5127951;28;20126;-70
2022/07/27 13:25:14;;;;;;;0.70;0.10;;;22.50;53.20;;;;;;5127985;28;20040;-71
2022/07/27 13:27:40;;;;;;;0.80;0.22;;;22.50;53.00;;;;;;5127693;28;20040;-69